createdAt,value
2018-01-11T00:00:23.594Z,94.56
2018-01-11T00:01:23.836Z,94.46
2018-01-11T00:02:23.817Z,94.56
2018-01-11T00:03:23.534Z,94.46
2018-01-11T00:04:23.778Z,94.46
2018-01-11T00:05:23.500Z,93.89
2018-01-11T00:06:23.740Z,93.89
2018-01-11T00:07:23.456Z,94.27
2018-01-11T00:08:23.437Z,94.18
2018-01-11T00:09:23.420Z,93.99
2018-01-11T00:10:23.396Z,93.89
2018-01-11T00:11:23.642Z,93.23
2018-01-11T00:12:23.625Z,94.18
2018-01-11T00:13:23.604Z,93.41
2018-01-11T00:14:23.584Z,93.7
2018-01-11T00:15:23.300Z,93.6
2018-01-11T00:16:23.281Z,93.7
2018-01-11T00:17:23.524Z,93.23
2018-01-11T00:18:23.510Z,94.37
2018-01-11T00:19:23.486Z,94.37
2018-01-11T00:20:23.471Z,94.18
2018-01-11T00:21:23.183Z,94.08
2018-01-11T00:22:23.433Z,94.08
2018-01-11T00:23:23.408Z,94.27
2018-01-11T00:24:23.130Z,93.99
2018-01-11T00:25:23.371Z,94.18
2018-01-11T00:26:23.355Z,93.51
2018-01-11T00:27:23.336Z,93.32
2018-01-11T00:28:23.044Z,93.51
2018-01-11T00:29:23.025Z,93.51
2018-01-11T00:30:23.011Z,93.32
2018-01-11T00:31:23.255Z,93.51
2018-01-11T00:32:23.232Z,93.41
2018-01-11T00:33:22.959Z,93.7
2018-01-11T00:34:22.932Z,93.23
2018-01-11T00:35:22.910Z,93.23
2018-01-11T00:36:23.165Z,93.41
2018-01-11T00:37:23.336Z,93.32
2018-01-11T00:38:22.853Z,93.6
2018-01-11T00:39:23.099Z,93.41
2018-01-11T00:40:23.145Z,93.04
2018-01-11T00:41:23.070Z,93.04
2018-01-11T00:42:23.045Z,93.04
2018-01-11T00:43:23.023Z,92.85
2018-01-11T00:44:22.999Z,93.23
2018-01-11T00:45:22.989Z,92.47
2018-01-11T00:46:22.962Z,92.47
2018-01-11T00:47:22.943Z,92.47
2018-01-11T00:48:22.926Z,92.37
2018-01-11T00:49:23.105Z,92.56
2018-01-11T00:50:22.623Z,92.66
2018-01-11T00:51:22.869Z,92.09
2018-01-11T00:52:22.847Z,91.8
2018-01-11T00:53:22.828Z,91.99
2018-01-11T00:54:22.552Z,91.99
2018-01-11T00:55:22.789Z,91.99
2018-01-11T00:56:22.507Z,91.89
2018-01-11T00:57:22.752Z,92.09
2018-01-11T00:58:22.738Z,91.99
2018-01-11T00:59:22.712Z,91.61
2018-01-11T01:00:22.690Z,91.8
2018-01-11T01:01:22.674Z,91.71
2018-01-11T01:02:22.651Z,91.42
2018-01-11T01:03:22.373Z,91.52
2018-01-11T01:04:22.615Z,91.52
2018-01-11T01:05:22.659Z,91.8
2018-01-11T01:06:22.576Z,90.66
2018-01-11T01:07:22.555Z,91.04
2018-01-11T01:08:22.599Z,91.14
2018-01-11T01:09:22.255Z,90.66
2018-01-11T01:10:22.507Z,90.09
2018-01-11T01:11:22.478Z,90.47
2018-01-11T01:12:22.460Z,90.47
2018-01-11T01:13:22.439Z,90.47
2018-01-11T01:14:22.423Z,90.19
2018-01-11T01:15:22.134Z,90.28
2018-01-11T01:16:22.381Z,89.62
2018-01-11T01:17:22.361Z,89.9
2018-01-11T01:18:22.340Z,89.62
2018-01-11T01:19:22.324Z,89.72
2018-01-11T01:20:22.302Z,89.72
2018-01-11T01:21:22.285Z,89.81
2018-01-11T01:22:22.265Z,89.53
2018-01-11T01:23:22.243Z,89.05
2018-01-11T01:24:22.232Z,89.24
2018-01-11T01:25:22.207Z,89.24
2018-01-11T01:26:22.198Z,89.33
2018-01-11T01:27:22.170Z,89.24
2018-01-11T01:28:22.145Z,89.24
2018-01-11T01:29:21.866Z,89.33
2018-01-11T01:30:21.852Z,89.14
2018-01-11T01:31:22.092Z,89.24
2018-01-11T01:32:22.070Z,89.14
2018-01-11T01:33:21.785Z,89.24
2018-01-11T01:34:21.766Z,89.05
2018-01-11T01:35:22.029Z,89.05
2018-01-11T01:36:21.727Z,89.05
2018-01-11T01:37:21.985Z,89.14
2018-01-11T01:38:21.955Z,88.95
2018-01-11T01:39:21.932Z,88.95
2018-01-11T01:40:21.650Z,88.76
2018-01-11T01:41:21.898Z,89.05
2018-01-11T01:42:21.608Z,89.05
2018-01-11T01:43:21.855Z,89.05
2018-01-11T01:44:21.570Z,89.05
2018-01-11T01:45:21.820Z,89.43
2018-01-11T01:46:21.533Z,89.43
2018-01-11T01:47:21.779Z,89.43
2018-01-11T01:48:21.492Z,89.24
2018-01-11T01:49:21.472Z,89.43
2018-01-11T01:50:21.722Z,89.43
2018-01-11T01:51:21.431Z,89.24
2018-01-11T01:52:21.415Z,89.24
2018-01-11T01:53:21.394Z,89.43
2018-01-11T01:54:21.642Z,89.24
2018-01-11T01:55:21.357Z,89.53
2018-01-11T01:56:21.597Z,89.33
2018-01-11T01:57:21.586Z,89.72
2018-01-11T01:58:21.563Z,89.53
2018-01-11T01:59:21.282Z,89.72
2018-01-11T02:00:21.533Z,89.43
2018-01-11T02:01:21.507Z,90.19
2018-01-11T02:02:21.483Z,89.72
2018-01-11T02:03:21.469Z,89.81
2018-01-11T02:04:21.445Z,89.14
2018-01-11T02:05:21.160Z,89.24
2018-01-11T02:06:21.407Z,89.24
2018-01-11T02:07:21.121Z,89.24
2018-01-11T02:08:21.368Z,89.43
2018-01-11T02:09:21.349Z,89.43
2018-01-11T02:10:21.066Z,89.14
2018-01-11T02:11:21.305Z,88.86
2018-01-11T02:12:21.288Z,89.05
2018-01-11T02:13:21.003Z,89.14
2018-01-11T02:14:21.250Z,88.95
2018-01-11T02:15:20.966Z,88.57
2018-01-11T02:16:21.211Z,88.48
2018-01-11T02:17:20.928Z,88.57
2018-01-11T02:18:21.174Z,88.67
2018-01-11T02:19:20.888Z,88.57
2018-01-11T02:20:21.137Z,88.48
2018-01-11T02:21:21.113Z,88.57
2018-01-11T02:22:21.092Z,88.48
2018-01-11T02:23:21.073Z,88.76
2018-01-11T02:24:21.053Z,88.57
2018-01-11T02:25:21.039Z,88.29
2018-01-11T02:26:20.757Z,88.2
2018-01-11T02:27:20.734Z,87.91
2018-01-11T02:28:20.975Z,87.91
2018-01-11T02:29:20.957Z,87.62
2018-01-11T02:30:20.943Z,87.34
2018-01-11T02:31:20.918Z,87.82
2018-01-11T02:32:20.636Z,87.34
2018-01-11T02:33:20.888Z,87.43
2018-01-11T02:34:20.593Z,87.05
2018-01-11T02:35:20.845Z,87.05
2018-01-11T02:36:20.553Z,87.05
2018-01-11T02:37:20.804Z,87.15
2018-01-11T02:38:20.516Z,87.05
2018-01-11T02:39:20.506Z,87.05
2018-01-11T02:40:20.743Z,86.87
2018-01-11T02:41:20.456Z,86.68
2018-01-11T02:42:20.706Z,86.68
2018-01-11T02:43:20.421Z,86.87
2018-01-11T02:44:20.398Z,86.68
2018-01-11T02:45:20.383Z,86.77
2018-01-11T02:46:20.630Z,86.3
2018-01-11T02:47:20.613Z,86.77
2018-01-11T02:48:20.592Z,86.68
2018-01-11T02:49:20.565Z,86.11
2018-01-11T02:50:20.283Z,86.3
2018-01-11T02:51:20.536Z,86.54
2018-01-11T02:52:20.238Z,86.58
2018-01-11T02:53:20.489Z,86.68
2018-01-11T02:54:20.201Z,86.44
2018-01-11T02:55:20.453Z,85.82
2018-01-11T02:56:20.165Z,85.91
2018-01-11T02:57:20.417Z,86.11
2018-01-11T02:58:20.125Z,85.49
2018-01-11T02:59:20.109Z,85.91
2018-01-11T03:00:20.354Z,85.87
2018-01-11T03:01:20.331Z,86.68
2018-01-11T03:02:20.311Z,85.59
2018-01-11T03:03:20.291Z,85.82
2018-01-11T03:04:20.275Z,86.25
2018-01-11T03:05:20.252Z,86.3
2018-01-11T03:06:20.236Z,86.2
2018-01-11T03:07:20.210Z,86.49
2018-01-11T03:08:20.192Z,85.91
2018-01-11T03:09:20.177Z,86.11
2018-01-11T03:10:19.888Z,85.44
2018-01-11T03:11:19.869Z,85.91
2018-01-11T03:12:20.116Z,85.63
2018-01-11T03:13:19.829Z,85.91
2018-01-11T03:14:20.079Z,85.72
2018-01-11T03:15:19.793Z,85.72
2018-01-11T03:16:20.038Z,85.25
2018-01-11T03:17:20.016Z,85.53
2018-01-11T03:18:19.996Z,85.25
2018-01-11T03:19:19.976Z,85.63
2018-01-11T03:20:19.959Z,85.25
2018-01-11T03:21:19.674Z,85.35
2018-01-11T03:22:19.921Z,85.44
2018-01-11T03:23:19.897Z,85.06
2018-01-11T03:24:19.879Z,85.25
2018-01-11T03:25:19.860Z,85.35
2018-01-11T03:26:19.577Z,84.87
2018-01-11T03:27:19.822Z,84.68
2018-01-11T03:28:19.536Z,84.78
2018-01-11T03:29:19.783Z,84.78
2018-01-11T03:30:19.773Z,84.68
2018-01-11T03:31:19.480Z,84.49
2018-01-11T03:32:19.459Z,84.59
2018-01-11T03:33:19.703Z,84.4
2018-01-11T03:34:19.421Z,84.11
2018-01-11T03:35:19.663Z,84.59
2018-01-11T03:36:19.648Z,84.49
2018-01-11T03:37:19.360Z,84.49
2018-01-11T03:38:19.347Z,84.21
2018-01-11T03:39:19.322Z,84.59
2018-01-11T03:40:19.566Z,84.21
2018-01-11T03:41:19.549Z,84.78
2018-01-11T03:42:19.539Z,84.21
2018-01-11T03:43:19.241Z,84.78
2018-01-11T03:44:19.224Z,84.59
2018-01-11T03:45:19.473Z,84.49
2018-01-11T03:46:19.453Z,84.3
2018-01-11T03:47:19.434Z,84.68
2018-01-11T03:48:19.412Z,84.59
2018-01-11T03:49:19.390Z,84.59
2018-01-11T03:50:19.106Z,84.49
2018-01-11T03:51:19.350Z,84.4
2018-01-11T03:52:19.332Z,84.59
2018-01-11T03:53:19.312Z,85.16
2018-01-11T03:54:19.296Z,84.59
2018-01-11T03:55:19.276Z,84.59
2018-01-11T03:56:18.992Z,84.68
2018-01-11T03:57:19.240Z,84.59
2018-01-11T03:58:18.955Z,84.49
2018-01-11T03:59:19.196Z,84.59
2018-01-11T04:00:18.911Z,84.78
2018-01-11T04:01:19.162Z,84.68
2018-01-11T04:02:19.139Z,84.11
2018-01-11T04:03:19.115Z,84.49
2018-01-11T04:04:18.841Z,85.16
2018-01-11T04:05:19.080Z,84.78
2018-01-11T04:06:18.790Z,84.78
2018-01-11T04:07:18.776Z,84.3
2018-01-11T04:08:19.021Z,84.97
2018-01-11T04:09:19.003Z,85.16
2018-01-11T04:10:18.719Z,84.4
2018-01-11T04:11:18.705Z,84.4
2018-01-11T04:12:18.940Z,84.4
2018-01-11T04:13:18.924Z,84.78
2018-01-11T04:14:18.640Z,84.97
2018-01-11T04:15:18.623Z,84.87
2018-01-11T04:16:18.873Z,84.68
2018-01-11T04:17:18.848Z,85.53
2018-01-11T04:18:18.837Z,85.25
2018-01-11T04:19:18.804Z,84.68
2018-01-11T04:20:18.521Z,84.68
2018-01-11T04:21:18.504Z,84.59
2018-01-11T04:22:18.746Z,84.68
2018-01-11T04:23:18.463Z,84.68
2018-01-11T04:24:18.445Z,85.44
2018-01-11T04:25:18.427Z,85.16
2018-01-11T04:26:18.681Z,85.16
2018-01-11T04:27:18.655Z,85.25
2018-01-11T04:28:18.627Z,85.44
2018-01-11T04:29:18.615Z,85.53
2018-01-11T04:30:18.332Z,84.68
2018-01-11T04:31:18.570Z,85.25
2018-01-11T04:32:18.554Z,85.25
2018-01-11T04:33:18.269Z,85.06
2018-01-11T04:34:18.257Z,84.97
2018-01-11T04:35:18.497Z,85.06
2018-01-11T04:36:18.477Z,85.06
2018-01-11T04:37:18.466Z,85.06
2018-01-11T04:38:18.437Z,84.97
2018-01-11T04:39:18.158Z,84.78
2018-01-11T04:40:18.133Z,84.87
2018-01-11T04:41:18.380Z,84.78
2018-01-11T04:42:18.095Z,85.35
2018-01-11T04:43:18.339Z,85.16
2018-01-11T04:44:18.323Z,85.25
2018-01-11T04:45:18.036Z,85.53
2018-01-11T04:46:18.310Z,85.35
2018-01-11T04:47:18.264Z,85.63
2018-01-11T04:48:18.245Z,85.35
2018-01-11T04:49:17.957Z,85.72
2018-01-11T04:50:18.143Z,85.53
2018-01-11T04:51:18.184Z,86.01
2018-01-11T04:52:18.175Z,86.2
2018-01-11T04:53:18.149Z,86.01
2018-01-11T04:54:17.865Z,86.01
2018-01-11T04:55:18.109Z,86.01
2018-01-11T04:56:18.085Z,85.53
2018-01-11T04:57:18.070Z,86.11
2018-01-11T04:58:18.048Z,86.01
2018-01-11T04:59:18.030Z,86.39
2018-01-11T05:00:18.013Z,86.01
2018-01-11T05:01:18.002Z,86.49
2018-01-11T05:02:17.708Z,86.11
2018-01-11T05:03:17.950Z,86.49
2018-01-11T05:04:17.942Z,86.39
2018-01-11T05:05:17.650Z,86.11
2018-01-11T05:06:17.895Z,86.11
2018-01-11T05:07:17.609Z,86.2
2018-01-11T05:08:17.859Z,86.3
2018-01-11T05:09:17.574Z,86.2
2018-01-11T05:10:17.820Z,86.3
2018-01-11T05:11:17.802Z,85.82
2018-01-11T05:12:17.514Z,86.01
2018-01-11T05:13:17.759Z,85.82
2018-01-11T05:14:17.738Z,86.49
2018-01-11T05:15:17.461Z,86.49
2018-01-11T05:16:17.705Z,86.2
2018-01-11T05:17:17.414Z,86.39
2018-01-11T05:18:17.663Z,85.82
2018-01-11T05:19:17.644Z,86.2
2018-01-11T05:20:17.630Z,86.3
2018-01-11T05:21:17.341Z,85.91
2018-01-11T05:22:17.319Z,86.11
2018-01-11T05:23:17.567Z,86.2
2018-01-11T05:24:17.554Z,86.3
2018-01-11T05:25:17.263Z,86.49
2018-01-11T05:26:17.509Z,86.01
2018-01-11T05:27:17.492Z,86.49
2018-01-11T05:28:17.204Z,85.91
2018-01-11T05:29:17.452Z,85.91
2018-01-11T05:30:17.441Z,86.01
2018-01-11T05:31:17.409Z,85.91
2018-01-11T05:32:17.127Z,85.82
2018-01-11T05:33:17.376Z,85.91
2018-01-11T05:34:17.349Z,86.58
2018-01-11T05:35:17.336Z,85.91
2018-01-11T05:36:17.319Z,86.39
2018-01-11T05:37:17.291Z,86.2
2018-01-11T05:38:17.015Z,86.01
2018-01-11T05:39:17.259Z,85.72
2018-01-11T05:40:17.237Z,85.16
2018-01-11T05:41:17.214Z,85.82
2018-01-11T05:42:17.194Z,85.91
2018-01-11T05:43:17.175Z,85.82
2018-01-11T05:44:16.900Z,85.82
2018-01-11T05:45:16.875Z,85.25
2018-01-11T05:46:17.122Z,85.63
2018-01-11T05:47:17.097Z,85.63
2018-01-11T05:48:17.079Z,85.53
2018-01-11T05:49:16.794Z,85.16
2018-01-11T05:50:17.059Z,85.16
2018-01-11T05:51:17.023Z,85.35
2018-01-11T05:52:16.738Z,85.72
2018-01-11T05:53:16.718Z,84.78
2018-01-11T05:54:16.965Z,85.16
2018-01-11T05:55:16.944Z,84.78
2018-01-11T05:56:16.926Z,84.97
2018-01-11T05:57:16.906Z,84.97
2018-01-11T05:58:16.887Z,84.97
2018-01-11T05:59:16.865Z,84.97
2018-01-11T06:00:16.588Z,85.06
2018-01-11T06:01:16.832Z,85.16
2018-01-11T06:02:16.814Z,84.78
2018-01-11T06:03:16.795Z,85.16
2018-01-11T06:04:16.776Z,85.25
2018-01-11T06:05:16.761Z,85.25
2018-01-11T06:06:16.730Z,85.16
2018-01-11T06:07:16.448Z,84.78
2018-01-11T06:08:16.432Z,85.44
2018-01-11T06:09:16.672Z,84.87
2018-01-11T06:10:16.661Z,84.97
2018-01-11T06:11:16.680Z,85.06
2018-01-11T06:12:16.354Z,84.97
2018-01-11T06:13:16.594Z,85.25
2018-01-11T06:14:16.580Z,84.87
2018-01-11T06:15:16.295Z,85.35
2018-01-11T06:16:16.547Z,84.97
2018-01-11T06:17:16.519Z,85.44
2018-01-11T06:18:16.235Z,84.68
2018-01-11T06:19:16.215Z,84.59
2018-01-11T06:20:16.462Z,84.59
2018-01-11T06:21:16.445Z,84.21
2018-01-11T06:22:16.159Z,84.68
2018-01-11T06:23:16.402Z,84.49
2018-01-11T06:24:16.387Z,84.49
2018-01-11T06:25:16.100Z,84.59
2018-01-11T06:26:16.344Z,84.68
2018-01-11T06:27:16.324Z,84.59
2018-01-11T06:28:16.309Z,83.64
2018-01-11T06:29:16.376Z,83.54
2018-01-11T06:30:16.002Z,83.92
2018-01-11T06:31:15.982Z,83.73
2018-01-11T06:32:15.967Z,84.4
2018-01-11T06:33:15.942Z,84.49
2018-01-11T06:34:16.184Z,84.4
2018-01-11T06:35:15.906Z,84.59
2018-01-11T06:36:16.150Z,84.49
2018-01-11T06:37:16.136Z,84.49
2018-01-11T06:38:16.109Z,84.4
2018-01-11T06:39:16.089Z,84.21
2018-01-11T06:40:15.805Z,84.68
2018-01-11T06:41:16.056Z,84.68
2018-01-11T06:42:16.033Z,84.59
2018-01-11T06:43:16.011Z,84.59
2018-01-11T06:44:15.727Z,84.59
2018-01-11T06:45:15.973Z,84.49
2018-01-11T06:46:15.959Z,84.49
2018-01-11T06:47:15.677Z,84.59
2018-01-11T06:48:15.915Z,84.59
2018-01-11T06:49:15.631Z,84.78
2018-01-11T06:50:16.080Z,84.68
2018-01-11T06:51:15.854Z,84.68
2018-01-11T06:52:15.572Z,84.68
2018-01-11T06:53:15.818Z,84.59
2018-01-11T06:54:15.800Z,84.4
2018-01-11T06:55:15.786Z,84.59
2018-01-11T06:56:15.755Z,84.4
2018-01-11T06:57:15.742Z,84.68
2018-01-11T06:58:15.454Z,84.68
2018-01-11T06:59:15.703Z,84.49
2018-01-11T07:00:15.456Z,84.68
2018-01-11T07:01:15.677Z,84.68
2018-01-11T07:02:15.379Z,84.59
2018-01-11T07:03:15.364Z,84.21
2018-01-11T07:04:15.603Z,84.4
2018-01-11T07:05:15.598Z,84.78
2018-01-11T07:06:15.577Z,84.87
2018-01-11T07:07:15.545Z,84.78
2018-01-11T07:08:15.529Z,84.78
2018-01-11T07:09:15.245Z,84.78
2018-01-11T07:10:15.220Z,84.87
2018-01-11T07:11:15.469Z,84.78
2018-01-11T07:12:15.446Z,84.59
2018-01-11T07:13:15.432Z,84.78
2018-01-11T07:14:15.148Z,84.4
2018-01-11T07:15:15.129Z,84.68
2018-01-11T07:16:15.108Z,84.59
2018-01-11T07:17:15.089Z,84.59
2018-01-11T07:18:15.333Z,84.59
2018-01-11T07:19:15.310Z,84.68
2018-01-11T07:20:15.031Z,84.68
2018-01-11T07:21:15.278Z,84.68
2018-01-11T07:22:15.258Z,84.3
2018-01-11T07:23:14.973Z,84.21
2018-01-11T07:24:15.214Z,84.11
2018-01-11T07:25:15.193Z,84.01
2018-01-11T07:26:15.193Z,84.21
2018-01-11T07:27:15.157Z,84.11
2018-01-11T07:28:15.141Z,83.64
2018-01-11T07:29:15.580Z,83.64
2018-01-11T07:30:15.108Z,83.73
2018-01-11T07:31:15.086Z,83.83
2018-01-11T07:32:15.059Z,83.73
2018-01-11T07:33:15.041Z,83.73
2018-01-11T07:34:15.108Z,83.36
2018-01-11T07:35:14.738Z,83.36
2018-01-11T07:36:14.980Z,83.45
2018-01-11T07:37:14.698Z,83.26
2018-01-11T07:38:14.944Z,83.45
2018-01-11T07:39:14.921Z,83.45
2018-01-11T07:40:14.905Z,83.26
2018-01-11T07:41:14.888Z,82.88
2018-01-11T07:42:14.877Z,83.16
2018-01-11T07:43:14.846Z,83.07
2018-01-11T07:44:14.829Z,83.07
2018-01-11T07:45:14.809Z,82.88
2018-01-11T07:46:14.848Z,82.97
2018-01-11T07:47:14.772Z,83.07
2018-01-11T07:48:14.488Z,82.78
2018-01-11T07:49:14.735Z,83.26
2018-01-11T07:50:14.713Z,83.16
2018-01-11T07:51:14.430Z,83.07
2018-01-11T07:52:14.671Z,82.97
2018-01-11T07:53:14.656Z,82.69
2018-01-11T07:54:14.632Z,83.07
2018-01-11T07:55:14.623Z,82.97
2018-01-11T07:56:14.594Z,82.4
2018-01-11T07:57:14.312Z,82.88
2018-01-11T07:58:14.294Z,82.78
2018-01-11T07:59:14.533Z,82.69
2018-01-11T08:00:14.253Z,82.59
2018-01-11T08:01:14.232Z,83.07
2018-01-11T08:02:14.478Z,82.69
2018-01-11T08:03:14.198Z,82.88
2018-01-11T08:04:14.441Z,82.59
2018-01-11T08:05:14.419Z,83.16
2018-01-11T08:06:14.399Z,82.78
2018-01-11T08:07:14.378Z,82.69
2018-01-11T08:08:14.362Z,82.88
2018-01-11T08:09:14.355Z,82.31
2018-01-11T08:10:14.327Z,82.31
2018-01-11T08:11:14.039Z,82.31
2018-01-11T08:12:14.020Z,82.12
2018-01-11T08:13:14.264Z,82.21
2018-01-11T08:14:14.244Z,82.31
2018-01-11T08:15:13.962Z,82.21
2018-01-11T08:16:13.943Z,82.4
2018-01-11T08:17:14.183Z,82.5
2018-01-11T08:18:13.908Z,82.31
2018-01-11T08:19:13.892Z,82.5
2018-01-11T08:20:14.223Z,82.31
2018-01-11T08:21:14.111Z,82.59
2018-01-11T08:22:14.091Z,82.69
2018-01-11T08:23:14.072Z,82.59
2018-01-11T08:24:13.788Z,82.59
2018-01-11T08:25:14.046Z,82.5
2018-01-11T08:26:13.751Z,82.59
2018-01-11T08:27:13.995Z,82.69
2018-01-11T08:28:13.728Z,82.97
2018-01-11T08:29:13.690Z,82.78
2018-01-11T08:30:13.947Z,82.88
2018-01-11T08:31:13.654Z,82.78
2018-01-11T08:32:13.903Z,82.88
2018-01-11T08:33:13.883Z,83.26
2018-01-11T08:34:13.858Z,82.97
2018-01-11T08:35:13.842Z,83.01
2018-01-11T08:36:13.562Z,82.73
2018-01-11T08:37:13.538Z,82.4
2018-01-11T08:38:13.833Z,82.31
2018-01-11T08:39:13.500Z,82.12
2018-01-11T08:40:13.480Z,82.73
2018-01-11T08:41:13.727Z,81.84
2018-01-11T08:42:13.710Z,81.87
2018-01-11T08:43:13.685Z,82.4
2018-01-11T08:44:13.677Z,81.97
2018-01-11T08:45:13.384Z,82.21
2018-01-11T08:46:13.633Z,81.84
2018-01-11T08:47:13.351Z,82.16
2018-01-11T08:48:13.330Z,82.45
2018-01-11T08:49:13.308Z,82.54
2018-01-11T08:50:13.762Z,82.31
2018-01-11T08:51:13.540Z,82.82
2018-01-11T08:52:13.258Z,82.59
2018-01-11T08:53:13.495Z,82.82
2018-01-11T08:54:13.212Z,82.78
2018-01-11T08:55:13.461Z,83.2
2018-01-11T08:56:13.437Z,83.2
2018-01-11T08:57:13.416Z,83.59
2018-01-11T08:58:13.402Z,83.39
2018-01-11T08:59:13.390Z,83.36
2018-01-11T09:00:13.101Z,83.39
2018-01-11T09:01:13.348Z,83.54
2018-01-11T09:02:13.321Z,83.59
2018-01-11T09:03:13.045Z,83.73
2018-01-11T09:04:13.284Z,83.45
2018-01-11T09:05:13.267Z,83.36
2018-01-11T09:06:12.983Z,83.39
2018-01-11T09:07:13.226Z,83.49
2018-01-11T09:08:13.207Z,83.59
2018-01-11T09:09:13.195Z,83.54
2018-01-11T09:10:13.179Z,83.92
2018-01-11T09:11:13.161Z,83.49
2018-01-11T09:12:12.873Z,83.87
2018-01-11T09:13:12.855Z,83.68
2018-01-11T09:14:13.101Z,83.39
2018-01-11T09:15:13.080Z,83.59
2018-01-11T09:16:13.062Z,83.59
2018-01-11T09:17:13.041Z,83.78
2018-01-11T09:18:13.019Z,83.68
2018-01-11T09:19:13.001Z,83.78
2018-01-11T09:20:12.988Z,83.68
2018-01-11T09:21:12.702Z,83.2
2018-01-11T09:22:12.944Z,83.11
2018-01-11T09:23:12.662Z,83.2
2018-01-11T09:24:12.908Z,82.73
2018-01-11T09:25:12.898Z,83.01
2018-01-11T09:26:12.875Z,83.11
2018-01-11T09:27:12.853Z,82.92
2018-01-11T09:28:12.833Z,82.92
2018-01-11T09:29:12.556Z,82.45
2018-01-11T09:30:12.533Z,82.64
2018-01-11T09:31:12.512Z,82.73
2018-01-11T09:32:12.498Z,83.01
2018-01-11T09:33:12.739Z,82.64
2018-01-11T09:34:12.456Z,83.01
2018-01-11T09:35:12.446Z,82.82
2018-01-11T09:36:12.420Z,83.2
2018-01-11T09:37:12.669Z,83.39
2018-01-11T09:38:12.651Z,84.06
2018-01-11T09:39:12.632Z,84.25
2018-01-11T09:40:12.617Z,84.25
2018-01-11T09:41:12.593Z,84.16
2018-01-11T09:42:12.574Z,84.1
2018-01-11T09:43:12.556Z,83.44
2018-01-11T09:44:12.544Z,83.82
2018-01-11T09:45:12.254Z,83.72
2018-01-11T09:46:12.505Z,84.39
2018-01-11T09:47:12.218Z,83.82
2018-01-11T09:48:12.199Z,84.67
2018-01-11T09:49:12.184Z,84.58
2018-01-11T09:50:12.436Z,84.67
2018-01-11T09:51:12.412Z,85.72
2018-01-11T09:52:12.394Z,85.53
2018-01-11T09:53:12.113Z,85.24
2018-01-11T09:54:12.356Z,86
2018-01-11T09:55:12.348Z,86.29
2018-01-11T09:56:12.321Z,86.57
2018-01-11T09:57:12.038Z,86.67
2018-01-11T09:58:12.284Z,86.76
2018-01-11T09:59:12.003Z,86.47
2018-01-11T10:00:11.992Z,86.95
2018-01-11T10:01:12.234Z,86.47
2018-01-11T10:02:12.214Z,86.47
2018-01-11T10:03:11.931Z,86.95
2018-01-11T10:04:12.176Z,87.34
2018-01-11T10:05:12.158Z,87.71
2018-01-11T10:06:12.142Z,87.81
2018-01-11T10:07:11.862Z,88.42
2018-01-11T10:08:12.109Z,89.85
2018-01-11T10:09:12.091Z,89.56
2018-01-11T10:10:12.072Z,89.47
2018-01-11T10:11:11.790Z,89.47
2018-01-11T10:12:12.091Z,90.61
2018-01-11T10:13:12.021Z,90.23
2018-01-11T10:14:12.002Z,89.18
2018-01-11T10:15:11.986Z,90.23
2018-01-11T10:16:11.701Z,90.8
2018-01-11T10:17:11.685Z,90.7
2018-01-11T10:18:11.672Z,91.28
2018-01-11T10:19:11.922Z,92.22
2018-01-11T10:20:11.634Z,91.66
2018-01-11T10:21:11.616Z,91.37
2018-01-11T10:22:11.864Z,91.37
2018-01-11T10:23:11.844Z,91.18
2018-01-11T10:24:11.565Z,90.99
2018-01-11T10:25:11.549Z,90.99
2018-01-11T10:26:11.531Z,92.13
2018-01-11T10:27:11.516Z,92.22
2018-01-11T10:28:11.759Z,92.32
2018-01-11T10:29:11.750Z,92.41
2018-01-11T10:30:11.730Z,91.85
2018-01-11T10:31:11.448Z,92.41
2018-01-11T10:32:11.691Z,91.94
2018-01-11T10:33:11.677Z,92.03
2018-01-11T10:34:11.397Z,92.51
2018-01-11T10:35:11.379Z,92.32
2018-01-11T10:36:11.361Z,93.27
2018-01-11T10:37:11.611Z,94.32
2018-01-11T10:38:11.595Z,93.65
2018-01-11T10:39:11.574Z,94.32
2018-01-11T10:40:11.296Z,94.42
2018-01-11T10:41:11.545Z,94.42
2018-01-11T10:42:11.260Z,93.94
2018-01-11T10:43:11.515Z,93.75
2018-01-11T10:44:11.227Z,93.18
2018-01-11T10:45:11.206Z,93.18
2018-01-11T10:46:11.457Z,92.89
2018-01-11T10:47:11.174Z,92.89
2018-01-11T10:48:11.423Z,92.89
2018-01-11T10:49:11.140Z,92.89
2018-01-11T10:50:11.795Z,93.13
2018-01-11T10:51:11.110Z,92.75
2018-01-11T10:52:11.092Z,93.27
2018-01-11T10:53:11.337Z,93.84
2018-01-11T10:54:11.061Z,94.13
2018-01-11T10:55:11.040Z,93.65
2018-01-11T10:56:11.294Z,93.18
2018-01-11T10:57:11.275Z,93.18
2018-01-11T10:58:10.994Z,93.37
2018-01-11T10:59:10.973Z,93.18
2018-01-11T11:00:10.955Z,93.18
2018-01-11T11:01:10.936Z,92.7
2018-01-11T11:02:11.193Z,92.89
2018-01-11T11:03:11.169Z,92.8
2018-01-11T11:04:10.886Z,92.7
2018-01-11T11:05:11.143Z,93.65
2018-01-11T11:06:10.862Z,94.42
2018-01-11T11:07:11.099Z,93.65
2018-01-11T11:08:11.086Z,93.08
2018-01-11T11:09:11.119Z,92.8
2018-01-11T11:10:11.055Z,92.8
2018-01-11T11:11:11.029Z,92.13
2018-01-11T11:12:10.752Z,92.89
2018-01-11T11:13:11.003Z,92.99
2018-01-11T11:14:10.981Z,93.37
2018-01-11T11:15:10.964Z,92.7
2018-01-11T11:16:10.948Z,92.99
2018-01-11T11:17:10.663Z,92.8
2018-01-11T11:18:10.911Z,92.89
2018-01-11T11:19:10.630Z,92.8
2018-01-11T11:20:10.876Z,93.94
2018-01-11T11:21:10.594Z,93.37
2018-01-11T11:22:10.578Z,93.46
2018-01-11T11:23:10.561Z,93.18
2018-01-11T11:24:10.811Z,93.08
2018-01-11T11:25:10.526Z,93.27
2018-01-11T11:26:10.774Z,92.8
2018-01-11T11:27:10.754Z,92.7
2018-01-11T11:28:10.737Z,92.8
2018-01-11T11:29:10.720Z,92.89
2018-01-11T11:30:10.705Z,93.08
2018-01-11T11:31:10.688Z,93.18
2018-01-11T11:32:10.404Z,92.7
2018-01-11T11:33:10.387Z,92.8
2018-01-11T11:34:10.632Z,92.13
2018-01-11T11:35:10.617Z,92.22
2018-01-11T11:36:10.340Z,92.61
2018-01-11T11:37:10.588Z,92.89
2018-01-11T11:38:10.300Z,92.99
2018-01-11T11:39:10.549Z,94.42
2018-01-11T11:40:10.538Z,94.13
2018-01-11T11:41:10.513Z,94.32
2018-01-11T11:42:10.493Z,93.55
2018-01-11T11:43:10.477Z,93.65
2018-01-11T11:44:10.199Z,93.37
2018-01-11T11:45:10.442Z,93.18
2018-01-11T11:46:10.162Z,92.89
2018-01-11T11:47:10.407Z,93.37
2018-01-11T11:48:10.125Z,92.51
2018-01-11T11:49:10.374Z,92.99
2018-01-11T11:50:10.092Z,92.7
2018-01-11T11:51:10.338Z,93.18
2018-01-11T11:52:10.319Z,93.55
2018-01-11T11:53:10.305Z,92.99
2018-01-11T11:54:10.282Z,92.8
2018-01-11T11:55:10.269Z,93.27
2018-01-11T11:56:10.249Z,92.41
2018-01-11T11:57:10.233Z,92.7
2018-01-11T11:58:10.228Z,92.99
2018-01-11T11:59:10.204Z,94.13
2018-01-11T12:00:09.917Z,93.27
2018-01-11T12:01:09.903Z,93.08
2018-01-11T12:02:10.153Z,93.27
2018-01-11T12:03:10.136Z,92.99
2018-01-11T12:04:09.851Z,92.8
2018-01-11T12:05:09.833Z,93.08
2018-01-11T12:06:09.816Z,92.89
2018-01-11T12:07:10.059Z,92.8
2018-01-11T12:08:10.040Z,93.37
2018-01-11T12:09:09.763Z,93.37
2018-01-11T12:10:10.009Z,93.65
2018-01-11T12:11:09.730Z,93.18
2018-01-11T12:12:09.972Z,93.98
2018-01-11T12:13:09.693Z,93.46
2018-01-11T12:14:09.676Z,93.51
2018-01-11T12:15:09.655Z,93.13
2018-01-11T12:16:09.905Z,93.41
2018-01-11T12:17:09.624Z,93.13
2018-01-11T12:18:09.875Z,93.51
2018-01-11T12:19:09.590Z,93.32
2018-01-11T12:20:09.840Z,93.51
2018-01-11T12:21:09.828Z,93.98
2018-01-11T12:22:09.803Z,93.98
2018-01-11T12:23:09.522Z,93.98
2018-01-11T12:24:09.771Z,93.89
2018-01-11T12:25:09.488Z,94.08
2018-01-11T12:26:09.737Z,93.51
2018-01-11T12:27:09.724Z,93.79
2018-01-11T12:28:09.712Z,93.98
2018-01-11T12:29:09.424Z,93.6
2018-01-11T12:30:09.408Z,94.84
2018-01-11T12:31:09.704Z,94.27
2018-01-11T12:32:09.636Z,95.79
2018-01-11T12:33:09.622Z,95.03
2018-01-11T12:34:09.601Z,94.56
2018-01-11T12:35:09.582Z,95.89
2018-01-11T12:36:09.568Z,95.6
2018-01-11T12:37:09.553Z,95.03
2018-01-11T12:38:09.271Z,94.93
2018-01-11T12:39:09.524Z,94.56
2018-01-11T12:40:09.499Z,94.84
2018-01-11T12:41:09.485Z,94.27
2018-01-11T12:42:09.205Z,94.46
2018-01-11T12:43:09.186Z,94.84
2018-01-11T12:44:09.433Z,95.22
2018-01-11T12:45:09.415Z,95.12
2018-01-11T12:46:09.401Z,95.12
2018-01-11T12:47:09.117Z,95.03
2018-01-11T12:48:09.366Z,96.08
2018-01-11T12:49:09.085Z,94.84
2018-01-11T12:50:09.331Z,95.32
2018-01-11T12:51:09.317Z,95.32
2018-01-11T12:52:09.310Z,95.22
2018-01-11T12:53:09.284Z,95.32
2018-01-11T12:54:09.007Z,95.03
2018-01-11T12:55:08.996Z,95.12